sensor_id;sensor_type;location;lat;lon;timestamp;temperature;humidity
56322;DHT22;42227;6.376;-10.782;2023-06-14T00:00:17;27.00;1.00
56322;DHT22;42227;6.376;-10.782;2023-06-14T00:02:46;27.00;1.00
56322;DHT22;42227;6.376;-10.782;2023-06-14T00:05:15;26.90;1.00
56322;DHT22;42227;6.376;-10.782;2023-06-14T00:07:43;27.20;1.00
56322;DHT22;42227;6.376;-10.782;2023-06-14T00:10:12;27.60;1.00
56322;DHT22;42227;6.376;-10.782;2023-06-14T00:12:41;27.70;1.00
56322;DHT22;42227;6.376;-10.782;2023-06-14T00:15:09;27.70;1.00
56322;DHT22;42227;6.376;-10.782;2023-06-14T00:17:38;27.30;1.00
56322;DHT22;42227;6.376;-10.782;2023-06-14T00:20:07;27.20;1.00
56322;DHT22;42227;6.376;-10.782;2023-06-14T00:22:36;27.10;1.00
56322;DHT22;42227;6.376;-10.782;2023-06-14T00:25:05;27.00;1.00
56322;DHT22;42227;6.376;-10.782;2023-06-14T00:27:55;26.90;1.00
56322;DHT22;42227;6.376;-10.782;2023-06-14T00:30:24;27.00;1.00
56322;DHT22;42227;6.376;-10.782;2023-06-14T00:32:55;27.30;1.00
56322;DHT22;42227;6.376;-10.782;2023-06-14T00:35:25;27.40;1.00
56322;DHT22;42227;6.376;-10.782;2023-06-14T00:37:54;27.70;1.00
56322;DHT22;42227;6.376;-10.782;2023-06-14T00:40:22;27.60;1.00
56322;DHT22;42227;6.376;-10.782;2023-06-14T00:42:51;27.40;1.00
56322;DHT22;42227;6.376;-10.782;2023-06-14T00:45:19;27.20;1.00
56322;DHT22;42227;6.376;-10.782;2023-06-14T00:47:48;27.00;1.00
56322;DHT22;42227;6.376;-10.782;2023-06-14T00:50:17;26.90;1.00
56322;DHT22;42227;6.376;-10.782;2023-06-14T00:52:46;26.90;1.00
56322;DHT22;42227;6.376;-10.782;2023-06-14T00:55:15;26.80;1.00
56322;DHT22;42227;6.376;-10.782;2023-06-14T00:57:44;27.10;1.00
56322;DHT22;42227;6.376;-10.782;2023-06-14T01:00:13;27.40;1.00
56322;DHT22;42227;6.376;-10.782;2023-06-14T01:02:42;27.70;1.00
56322;DHT22;42227;6.376;-10.782;2023-06-14T01:05:11;27.70;1.00
56322;DHT22;42227;6.376;-10.782;2023-06-14T01:10:41;27.00;1.00
56322;DHT22;42227;6.376;-10.782;2023-06-14T01:15:44;26.80;1.00
56322;DHT22;42227;6.376;-10.782;2023-06-14T01:18:13;26.70;1.00
56322;DHT22;42227;6.376;-10.782;2023-06-14T01:20:41;26.90;1.00
56322;DHT22;42227;6.376;-10.782;2023-06-14T01:23:10;27.50;1.00
56322;DHT22;42227;6.376;-10.782;2023-06-14T01:25:39;27.80;1.00
56322;DHT22;42227;6.376;-10.782;2023-06-14T01:28:07;28.00;1.00
56322;DHT22;42227;6.376;-10.782;2023-06-14T01:30:37;28.00;1.00
56322;DHT22;42227;6.376;-10.782;2023-06-14T01:33:07;27.50;1.00
56322;DHT22;42227;6.376;-10.782;2023-06-14T01:35:37;27.20;1.00
56322;DHT22;42227;6.376;-10.782;2023-06-14T01:38:07;27.00;1.00
56322;DHT22;42227;6.376;-10.782;2023-06-14T01:40:36;26.90;1.00
56322;DHT22;42227;6.376;-10.782;2023-06-14T01:43:05;26.90;1.00
56322;DHT22;42227;6.376;-10.782;2023-06-14T01:45:37;26.80;1.00
56322;DHT22;42227;6.376;-10.782;2023-06-14T01:48:06;27.20;1.00
56322;DHT22;42227;6.376;-10.782;2023-06-14T01:50:34;27.50;1.00
56322;DHT22;42227;6.376;-10.782;2023-06-14T01:53:07;27.80;1.00
56322;DHT22;42227;6.376;-10.782;2023-06-14T01:55:37;27.90;1.00
56322;DHT22;42227;6.376;-10.782;2023-06-14T01:58:08;27.70;1.00
56322;DHT22;42227;6.376;-10.782;2023-06-14T02:00:37;27.40;1.00
56322;DHT22;42227;6.376;-10.782;2023-06-14T02:03:05;27.10;1.00
56322;DHT22;42227;6.376;-10.782;2023-06-14T02:05:34;26.90;1.00
56322;DHT22;42227;6.376;-10.782;2023-06-14T02:08:04;26.90;1.00
56322;DHT22;42227;6.376;-10.782;2023-06-14T02:10:33;26.90;1.00
56322;DHT22;42227;6.376;-10.782;2023-06-14T02:13:03;26.80;1.00
56322;DHT22;42227;6.376;-10.782;2023-06-14T02:15:32;27.00;1.00
56322;DHT22;42227;6.376;-10.782;2023-06-14T02:18:01;27.20;1.00
56322;DHT22;42227;6.376;-10.782;2023-06-14T02:20:32;27.40;1.00
56322;DHT22;42227;6.376;-10.782;2023-06-14T02:23:00;27.40;1.00
56322;DHT22;42227;6.376;-10.782;2023-06-14T02:25:31;27.20;1.00
56322;DHT22;42227;6.376;-10.782;2023-06-14T02:27:59;26.90;1.00
56322;DHT22;42227;6.376;-10.782;2023-06-14T02:30:28;26.80;1.00
56322;DHT22;42227;6.376;-10.782;2023-06-14T02:32:57;26.80;1.00
56322;DHT22;42227;6.376;-10.782;2023-06-14T02:35:25;26.70;1.00
56322;DHT22;42227;6.376;-10.782;2023-06-14T02:37:55;26.70;1.00
56322;DHT22;42227;6.376;-10.782;2023-06-14T02:40:24;26.90;1.00
56322;DHT22;42227;6.376;-10.782;2023-06-14T02:42:52;27.40;1.00
56322;DHT22;42227;6.376;-10.782;2023-06-14T02:45:21;27.60;1.00
56322;DHT22;42227;6.376;-10.782;2023-06-14T02:47:49;27.60;1.00
56322;DHT22;42227;6.376;-10.782;2023-06-14T02:50:18;27.20;1.00
56322;DHT22;42227;6.376;-10.782;2023-06-14T02:52:46;26.90;1.00
56322;DHT22;42227;6.376;-10.782;2023-06-14T02:55:15;26.80;1.00
56322;DHT22;42227;6.376;-10.782;2023-06-14T02:57:44;26.70;1.00
56322;DHT22;42227;6.376;-10.782;2023-06-14T03:00:12;26.70;1.00
56322;DHT22;42227;6.376;-10.782;2023-06-14T03:02:44;26.70;1.00
56322;DHT22;42227;6.376;-10.782;2023-06-14T03:05:13;27.00;1.00
56322;DHT22;42227;6.376;-10.782;2023-06-14T03:07:44;27.40;1.00
56322;DHT22;42227;6.376;-10.782;2023-06-14T03:10:14;27.70;1.00
56322;DHT22;42227;6.376;-10.782;2023-06-14T03:12:45;27.50;1.00
56322;DHT22;42227;6.376;-10.782;2023-06-14T03:15:14;27.10;1.00
56322;DHT22;42227;6.376;-10.782;2023-06-14T03:17:45;26.80;1.00
56322;DHT22;42227;6.376;-10.782;2023-06-14T03:20:16;26.80;1.00
56322;DHT22;42227;6.376;-10.782;2023-06-14T03:22:46;26.70;1.00
56322;DHT22;42227;6.376;-10.782;2023-06-14T03:25:15;26.60;1.00
56322;DHT22;42227;6.376;-10.782;2023-06-14T03:27:45;26.90;1.00
56322;DHT22;42227;6.376;-10.782;2023-06-14T03:30:14;27.30;1.00
56322;DHT22;42227;6.376;-10.782;2023-06-14T03:32:46;27.50;1.00
56322;DHT22;42227;6.376;-10.782;2023-06-14T03:35:14;27.60;1.00
56322;DHT22;42227;6.376;-10.782;2023-06-14T03:37:44;27.10;1.00
56322;DHT22;42227;6.376;-10.782;2023-06-14T03:40:17;26.90;1.00
56322;DHT22;42227;6.376;-10.782;2023-06-14T03:42:49;26.70;1.00
56322;DHT22;42227;6.376;-10.782;2023-06-14T03:45:20;26.60;1.00
56322;DHT22;42227;6.376;-10.782;2023-06-14T03:47:48;26.50;1.00
56322;DHT22;42227;6.376;-10.782;2023-06-14T03:50:17;26.50;1.00
56322;DHT22;42227;6.376;-10.782;2023-06-14T03:52:48;26.80;1.00
56322;DHT22;42227;6.376;-10.782;2023-06-14T03:55:17;27.00;1.00
56322;DHT22;42227;6.376;-10.782;2023-06-14T03:57:48;27.30;1.00
56322;DHT22;42227;6.376;-10.782;2023-06-14T04:00:17;27.40;1.00
56322;DHT22;42227;6.376;-10.782;2023-06-14T04:02:46;27.10;1.00
56322;DHT22;42227;6.376;-10.782;2023-06-14T04:05:15;26.90;1.00
56322;DHT22;42227;6.376;-10.782;2023-06-14T04:07:47;26.70;1.00
56322;DHT22;42227;6.376;-10.782;2023-06-14T04:10:16;26.60;1.00
56322;DHT22;42227;6.376;-10.782;2023-06-14T04:12:45;26.60;1.00
56322;DHT22;42227;6.376;-10.782;2023-06-14T04:15:13;26.60;1.00
56322;DHT22;42227;6.376;-10.782;2023-06-14T04:17:51;26.80;1.00
56322;DHT22;42227;6.376;-10.782;2023-06-14T04:20:22;27.20;1.00
56322;DHT22;42227;6.376;-10.782;2023-06-14T04:22:51;27.30;1.00
56322;DHT22;42227;6.376;-10.782;2023-06-14T04:25:20;27.40;1.00
56322;DHT22;42227;6.376;-10.782;2023-06-14T04:27:52;27.10;1.00
56322;DHT22;42227;6.376;-10.782;2023-06-14T04:30:21;26.90;1.00
56322;DHT22;42227;6.376;-10.782;2023-06-14T04:32:50;26.70;1.00
56322;DHT22;42227;6.376;-10.782;2023-06-14T04:35:19;26.60;1.00
56322;DHT22;42227;6.376;-10.782;2023-06-14T04:37:47;26.50;1.00
56322;DHT22;42227;6.376;-10.782;2023-06-14T04:40:15;26.50;1.00
56322;DHT22;42227;6.376;-10.782;2023-06-14T04:42:44;27.00;1.00
56322;DHT22;42227;6.376;-10.782;2023-06-14T04:45:14;27.30;1.00
56322;DHT22;42227;6.376;-10.782;2023-06-14T04:47:44;27.60;1.00
56322;DHT22;42227;6.376;-10.782;2023-06-14T04:50:13;27.40;1.00
56322;DHT22;42227;6.376;-10.782;2023-06-14T04:52:41;27.10;1.00
56322;DHT22;42227;6.376;-10.782;2023-06-14T04:55:10;26.90;1.00
56322;DHT22;42227;6.376;-10.782;2023-06-14T04:57:39;26.80;1.00
56322;DHT22;42227;6.376;-10.782;2023-06-14T05:00:08;26.70;1.00
56322;DHT22;42227;6.376;-10.782;2023-06-14T05:02:37;26.60;1.00
56322;DHT22;42227;6.376;-10.782;2023-06-14T05:05:06;26.60;1.00
56322;DHT22;42227;6.376;-10.782;2023-06-14T05:07:35;27.10;1.00
56322;DHT22;42227;6.376;-10.782;2023-06-14T05:10:07;27.40;1.00
56322;DHT22;42227;6.376;-10.782;2023-06-14T05:12:35;27.50;1.00
56322;DHT22;42227;6.376;-10.782;2023-06-14T05:15:06;27.60;1.00
56322;DHT22;42227;6.376;-10.782;2023-06-14T05:17:35;27.20;1.00
56322;DHT22;42227;6.376;-10.782;2023-06-14T05:20:04;26.90;1.00
56322;DHT22;42227;6.376;-10.782;2023-06-14T05:22:32;26.70;1.00
56322;DHT22;42227;6.376;-10.782;2023-06-14T05:25:01;26.70;1.00
56322;DHT22;42227;6.376;-10.782;2023-06-14T05:27:29;26.60;1.00
56322;DHT22;42227;6.376;-10.782;2023-06-14T05:29:58;26.60;1.00
56322;DHT22;42227;6.376;-10.782;2023-06-14T05:32:28;27.00;1.00
56322;DHT22;42227;6.376;-10.782;2023-06-14T05:34:56;27.20;1.00
56322;DHT22;42227;6.376;-10.782;2023-06-14T05:37:24;27.40;1.00
56322;DHT22;42227;6.376;-10.782;2023-06-14T05:39:53;27.20;1.00
56322;DHT22;42227;6.376;-10.782;2023-06-14T05:42:22;26.90;1.00
56322;DHT22;42227;6.376;-10.782;2023-06-14T05:44:50;26.70;1.00
56322;DHT22;42227;6.376;-10.782;2023-06-14T05:47:18;26.70;1.00
56322;DHT22;42227;6.376;-10.782;2023-06-14T05:49:47;26.60;1.00
56322;DHT22;42227;6.376;-10.782;2023-06-14T05:52:15;26.60;1.00
56322;DHT22;42227;6.376;-10.782;2023-06-14T05:54:44;26.60;1.00
56322;DHT22;42227;6.376;-10.782;2023-06-14T05:57:12;27.10;1.00
56322;DHT22;42227;6.376;-10.782;2023-06-14T05:59:40;27.30;1.00
56322;DHT22;42227;6.376;-10.782;2023-06-14T06:02:09;27.30;1.00
56322;DHT22;42227;6.376;-10.782;2023-06-14T06:04:38;27.30;1.00
56322;DHT22;42227;6.376;-10.782;2023-06-14T06:07:06;26.90;1.00
56322;DHT22;42227;6.376;-10.782;2023-06-14T06:09:34;26.80;1.00
56322;DHT22;42227;6.376;-10.782;2023-06-14T06:12:04;26.70;1.00
56322;DHT22;42227;6.376;-10.782;2023-06-14T06:14:33;26.70;1.00
56322;DHT22;42227;6.376;-10.782;2023-06-14T06:17:01;26.60;1.00
56322;DHT22;42227;6.376;-10.782;2023-06-14T06:19:30;26.60;1.00
56322;DHT22;42227;6.376;-10.782;2023-06-14T06:21:58;26.60;1.00
56322;DHT22;42227;6.376;-10.782;2023-06-14T06:24:27;27.10;1.00
56322;DHT22;42227;6.376;-10.782;2023-06-14T06:26:55;27.40;1.00
56322;DHT22;42227;6.376;-10.782;2023-06-14T06:29:24;27.40;1.00
56322;DHT22;42227;6.376;-10.782;2023-06-14T06:31:52;27.20;1.00
56322;DHT22;42227;6.376;-10.782;2023-06-14T06:34:20;26.90;1.00
56322;DHT22;42227;6.376;-10.782;2023-06-14T06:36:49;26.70;1.00
56322;DHT22;42227;6.376;-10.782;2023-06-14T06:39:18;26.70;1.00
56322;DHT22;42227;6.376;-10.782;2023-06-14T06:41:46;26.60;1.00
56322;DHT22;42227;6.376;-10.782;2023-06-14T06:44:19;26.60;1.00
56322;DHT22;42227;6.376;-10.782;2023-06-14T06:46:50;26.70;1.00
56322;DHT22;42227;6.376;-10.782;2023-06-14T06:49:18;26.90;1.00
56322;DHT22;42227;6.376;-10.782;2023-06-14T06:52:00;27.00;1.00
56322;DHT22;42227;6.376;-10.782;2023-06-14T06:54:29;27.10;1.00
56322;DHT22;42227;6.376;-10.782;2023-06-14T06:56:57;27.10;1.00
56322;DHT22;42227;6.376;-10.782;2023-06-14T06:59:26;26.90;1.00
56322;DHT22;42227;6.376;-10.782;2023-06-14T07:01:54;26.80;1.00
56322;DHT22;42227;6.376;-10.782;2023-06-14T07:04:23;26.70;1.00
56322;DHT22;42227;6.376;-10.782;2023-06-14T07:06:51;26.70;1.00
56322;DHT22;42227;6.376;-10.782;2023-06-14T07:09:20;26.80;1.00
56322;DHT22;42227;6.376;-10.782;2023-06-14T07:11:48;27.10;1.00
56322;DHT22;42227;6.376;-10.782;2023-06-14T07:14:17;27.10;1.00
56322;DHT22;42227;6.376;-10.782;2023-06-14T07:16:45;26.70;1.00
56322;DHT22;42227;6.376;-10.782;2023-06-14T07:19:14;26.30;1.00
56322;DHT22;42227;6.376;-10.782;2023-06-14T07:21:43;26.20;1.00
56322;DHT22;42227;6.376;-10.782;2023-06-14T07:24:13;26.30;1.00
56322;DHT22;42227;6.376;-10.782;2023-06-14T07:26:42;26.50;1.00
56322;DHT22;42227;6.376;-10.782;2023-06-14T07:29:10;26.50;1.00
56322;DHT22;42227;6.376;-10.782;2023-06-14T07:31:39;26.50;1.00
56322;DHT22;42227;6.376;-10.782;2023-06-14T07:34:07;26.50;1.00
56322;DHT22;42227;6.376;-10.782;2023-06-14T07:36:36;26.60;1.00
56322;DHT22;42227;6.376;-10.782;2023-06-14T07:39:05;26.80;1.00
56322;DHT22;42227;6.376;-10.782;2023-06-14T07:41:33;26.90;1.00
56322;DHT22;42227;6.376;-10.782;2023-06-14T07:44:02;26.90;1.00
56322;DHT22;42227;6.376;-10.782;2023-06-14T07:46:31;26.80;1.00
56322;DHT22;42227;6.376;-10.782;2023-06-14T07:49:00;26.80;1.00
56322;DHT22;42227;6.376;-10.782;2023-06-14T07:51:31;26.80;1.00
56322;DHT22;42227;6.376;-10.782;2023-06-14T07:54:00;26.80;1.00
56322;DHT22;42227;6.376;-10.782;2023-06-14T07:56:29;26.70;1.00
56322;DHT22;42227;6.376;-10.782;2023-06-14T07:58:57;26.60;1.00
56322;DHT22;42227;6.376;-10.782;2023-06-14T08:01:26;26.60;1.00
56322;DHT22;42227;6.376;-10.782;2023-06-14T08:03:55;26.70;1.00
56322;DHT22;42227;6.376;-10.782;2023-06-14T08:06:23;26.70;1.00
56322;DHT22;42227;6.376;-10.782;2023-06-14T08:08:53;26.80;1.00
56322;DHT22;42227;6.376;-10.782;2023-06-14T08:11:22;27.30;1.00
56322;DHT22;42227;6.376;-10.782;2023-06-14T08:13:51;27.40;1.00
56322;DHT22;42227;6.376;-10.782;2023-06-14T08:16:19;27.50;1.00
56322;DHT22;42227;6.376;-10.782;2023-06-14T08:18:49;27.40;1.00
56322;DHT22;42227;6.376;-10.782;2023-06-14T08:21:17;27.40;1.00
56322;DHT22;42227;6.376;-10.782;2023-06-14T08:23:46;27.50;1.00
56322;DHT22;42227;6.376;-10.782;2023-06-14T08:26:18;27.70;1.00
56322;DHT22;42227;6.376;-10.782;2023-06-14T08:28:47;27.70;1.00
56322;DHT22;42227;6.376;-10.782;2023-06-14T08:31:16;27.80;1.00
56322;DHT22;42227;6.376;-10.782;2023-06-14T08:33:45;28.30;1.00
56322;DHT22;42227;6.376;-10.782;2023-06-14T08:36:14;28.50;1.00
56322;DHT22;42227;6.376;-10.782;2023-06-14T08:38:44;28.30;1.00
56322;DHT22;42227;6.376;-10.782;2023-06-14T08:41:12;28.30;1.00
56322;DHT22;42227;6.376;-10.782;2023-06-14T08:43:48;27.90;1.00
56322;DHT22;42227;6.376;-10.782;2023-06-14T08:46:18;27.90;1.00
56322;DHT22;42227;6.376;-10.782;2023-06-14T08:48:49;27.90;1.00
56322;DHT22;42227;6.376;-10.782;2023-06-14T08:51:19;27.80;1.00
56322;DHT22;42227;6.376;-10.782;2023-06-14T08:53:53;27.90;1.00
56322;DHT22;42227;6.376;-10.782;2023-06-14T08:56:24;28.00;1.00
56322;DHT22;42227;6.376;-10.782;2023-06-14T08:58:53;28.10;1.00
56322;DHT22;42227;6.376;-10.782;2023-06-14T09:01:22;28.20;1.00
56322;DHT22;42227;6.376;-10.782;2023-06-14T09:03:51;28.30;1.00
56322;DHT22;42227;6.376;-10.782;2023-06-14T09:06:21;28.30;1.00
56322;DHT22;42227;6.376;-10.782;2023-06-14T09:08:50;28.40;1.00
56322;DHT22;42227;6.376;-10.782;2023-06-14T09:11:19;28.70;1.00
56322;DHT22;42227;6.376;-10.782;2023-06-14T09:13:49;28.80;1.00
56322;DHT22;42227;6.376;-10.782;2023-06-14T09:16:18;28.80;1.00
56322;DHT22;42227;6.376;-10.782;2023-06-14T09:18:47;28.50;1.00
56322;DHT22;42227;6.376;-10.782;2023-06-14T09:21:17;28.50;1.00
56322;DHT22;42227;6.376;-10.782;2023-06-14T09:23:47;28.70;1.00
56322;DHT22;42227;6.376;-10.782;2023-06-14T09:26:18;28.70;1.00
56322;DHT22;42227;6.376;-10.782;2023-06-14T09:28:50;28.90;1.00
56322;DHT22;42227;6.376;-10.782;2023-06-14T09:31:20;29.20;1.00
56322;DHT22;42227;6.376;-10.782;2023-06-14T09:33:50;29.70;1.00
56322;DHT22;42227;6.376;-10.782;2023-06-14T09:36:22;29.70;1.00
56322;DHT22;42227;6.376;-10.782;2023-06-14T09:38:57;29.40;1.00
56322;DHT22;42227;6.376;-10.782;2023-06-14T09:44:05;28.80;1.00
56322;DHT22;42227;6.376;-10.782;2023-06-14T09:46:39;28.60;1.00
56322;DHT22;42227;6.376;-10.782;2023-06-14T09:49:08;28.50;1.00
56322;DHT22;42227;6.376;-10.782;2023-06-14T09:51:43;28.40;1.00
56322;DHT22;42227;6.376;-10.782;2023-06-14T09:54:15;28.70;1.00
56322;DHT22;42227;6.376;-10.782;2023-06-14T09:56:47;28.90;1.00
56322;DHT22;42227;6.376;-10.782;2023-06-14T09:59:20;28.60;1.00
56322;DHT22;42227;6.376;-10.782;2023-06-14T10:01:50;28.40;1.00
56322;DHT22;42227;6.376;-10.782;2023-06-14T10:04:19;28.40;1.00
56322;DHT22;42227;6.376;-10.782;2023-06-14T10:06:51;28.40;1.00
56322;DHT22;42227;6.376;-10.782;2023-06-14T10:09:21;28.30;1.00
56322;DHT22;42227;6.376;-10.782;2023-06-14T10:11:50;28.50;1.00
56322;DHT22;42227;6.376;-10.782;2023-06-14T10:14:19;28.70;1.00
56322;DHT22;42227;6.376;-10.782;2023-06-14T10:17:09;28.90;1.00
56322;DHT22;42227;6.376;-10.782;2023-06-14T10:19:48;28.50;1.00
56322;DHT22;42227;6.376;-10.782;2023-06-14T10:22:35;28.40;1.00
56322;DHT22;42227;6.376;-10.782;2023-06-14T10:25:07;28.50;1.00
56322;DHT22;42227;6.376;-10.782;2023-06-14T10:27:44;28.60;1.00
56322;DHT22;42227;6.376;-10.782;2023-06-14T10:30:15;28.70;1.00
56322;DHT22;42227;6.376;-10.782;2023-06-14T10:33:03;28.90;1.00
56322;DHT22;42227;6.376;-10.782;2023-06-14T10:35:33;28.80;1.00
56322;DHT22;42227;6.376;-10.782;2023-06-14T10:38:15;28.60;1.00
56322;DHT22;42227;6.376;-10.782;2023-06-14T10:40:43;28.60;1.00
56322;DHT22;42227;6.376;-10.782;2023-06-14T10:43:23;28.50;1.00
56322;DHT22;42227;6.376;-10.782;2023-06-14T10:46:12;28.60;1.00
56322;DHT22;42227;6.376;-10.782;2023-06-14T10:48:42;28.70;1.00
56322;DHT22;42227;6.376;-10.782;2023-06-14T10:51:20;29.10;1.00
56322;DHT22;42227;6.376;-10.782;2023-06-14T10:53:49;29.10;1.00
56322;DHT22;42227;6.376;-10.782;2023-06-14T10:56:29;28.90;1.00
56322;DHT22;42227;6.376;-10.782;2023-06-14T10:58:58;29.00;1.00
56322;DHT22;42227;6.376;-10.782;2023-06-14T11:01:38;29.40;1.00
56322;DHT22;42227;6.376;-10.782;2023-06-14T11:04:10;29.60;1.00
56322;DHT22;42227;6.376;-10.782;2023-06-14T11:06:49;29.80;1.00
56322;DHT22;42227;6.376;-10.782;2023-06-14T11:12:11;29.90;1.00
56322;DHT22;42227;6.376;-10.782;2023-06-14T11:14:40;29.30;1.00
56322;DHT22;42227;6.376;-10.782;2023-06-14T11:17:08;28.90;1.00
56322;DHT22;42227;6.376;-10.782;2023-06-14T11:19:37;28.40;1.00
56322;DHT22;42227;6.376;-10.782;2023-06-14T11:22:06;28.30;1.00
56322;DHT22;42227;6.376;-10.782;2023-06-14T11:24:35;28.30;1.00
56322;DHT22;42227;6.376;-10.782;2023-06-14T11:27:04;28.30;1.00
56322;DHT22;42227;6.376;-10.782;2023-06-14T11:29:32;28.40;1.00
56322;DHT22;42227;6.376;-10.782;2023-06-14T11:32:01;28.60;1.00
56322;DHT22;42227;6.376;-10.782;2023-06-14T11:34:30;28.50;1.00
56322;DHT22;42227;6.376;-10.782;2023-06-14T11:36:59;28.80;1.00
56322;DHT22;42227;6.376;-10.782;2023-06-14T11:39:28;28.90;1.00
56322;DHT22;42227;6.376;-10.782;2023-06-14T11:41:56;28.80;1.00
56322;DHT22;42227;6.376;-10.782;2023-06-14T11:44:25;28.90;1.00
56322;DHT22;42227;6.376;-10.782;2023-06-14T11:46:55;28.90;1.00
56322;DHT22;42227;6.376;-10.782;2023-06-14T11:49:24;28.90;1.00
56322;DHT22;42227;6.376;-10.782;2023-06-14T11:51:53;28.80;1.00
56322;DHT22;42227;6.376;-10.782;2023-06-14T11:54:22;28.80;1.00
56322;DHT22;42227;6.376;-10.782;2023-06-14T11:56:51;28.60;1.00
56322;DHT22;42227;6.376;-10.782;2023-06-14T11:59:24;28.60;1.00
56322;DHT22;42227;6.376;-10.782;2023-06-14T12:01:53;29.00;1.00
56322;DHT22;42227;6.376;-10.782;2023-06-14T12:04:27;29.40;1.00
56322;DHT22;42227;6.376;-10.782;2023-06-14T12:06:56;29.50;1.00
56322;DHT22;42227;6.376;-10.782;2023-06-14T12:09:25;29.60;1.00
56322;DHT22;42227;6.376;-10.782;2023-06-14T12:12:04;29.60;1.00
56322;DHT22;42227;6.376;-10.782;2023-06-14T12:14:33;29.40;1.00
56322;DHT22;42227;6.376;-10.782;2023-06-14T12:17:06;29.40;1.00
56322;DHT22;42227;6.376;-10.782;2023-06-14T12:19:45;29.90;1.00
56322;DHT22;42227;6.376;-10.782;2023-06-14T12:22:14;30.30;1.00
56322;DHT22;42227;6.376;-10.782;2023-06-14T12:24:43;30.70;1.00
56322;DHT22;42227;6.376;-10.782;2023-06-14T12:27:13;30.30;1.00
56322;DHT22;42227;6.376;-10.782;2023-06-14T12:29:42;30.40;1.00
56322;DHT22;42227;6.376;-10.782;2023-06-14T12:32:11;30.40;1.00
56322;DHT22;42227;6.376;-10.782;2023-06-14T12:34:40;30.60;1.00
56322;DHT22;42227;6.376;-10.782;2023-06-14T12:37:08;30.60;1.00
56322;DHT22;42227;6.376;-10.782;2023-06-14T12:39:36;30.70;1.00
56322;DHT22;42227;6.376;-10.782;2023-06-14T12:42:05;30.70;1.00
56322;DHT22;42227;6.376;-10.782;2023-06-14T12:44:34;30.50;1.00
56322;DHT22;42227;6.376;-10.782;2023-06-14T12:47:03;30.20;1.00
56322;DHT22;42227;6.376;-10.782;2023-06-14T12:49:31;30.20;1.00
56322;DHT22;42227;6.376;-10.782;2023-06-14T12:52:00;30.50;1.00
56322;DHT22;42227;6.376;-10.782;2023-06-14T12:54:28;30.40;1.00
56322;DHT22;42227;6.376;-10.782;2023-06-14T12:57:08;30.20;1.00
56322;DHT22;42227;6.376;-10.782;2023-06-14T12:59:37;30.50;1.00
56322;DHT22;42227;6.376;-10.782;2023-06-14T13:02:13;30.90;1.00
56322;DHT22;42227;6.376;-10.782;2023-06-14T13:04:44;30.80;1.00
56322;DHT22;42227;6.376;-10.782;2023-06-14T13:07:21;30.50;1.00
56322;DHT22;42227;6.376;-10.782;2023-06-14T13:09:51;29.70;1.00
56322;DHT22;42227;6.376;-10.782;2023-06-14T13:12:19;29.50;1.00
56322;DHT22;42227;6.376;-10.782;2023-06-14T13:14:48;29.20;1.00
56322;DHT22;42227;6.376;-10.782;2023-06-14T13:17:16;29.20;1.00
56322;DHT22;42227;6.376;-10.782;2023-06-14T13:19:45;29.40;1.00
56322;DHT22;42227;6.376;-10.782;2023-06-14T13:22:13;29.30;1.00
56322;DHT22;42227;6.376;-10.782;2023-06-14T13:24:42;29.50;1.00
56322;DHT22;42227;6.376;-10.782;2023-06-14T13:27:10;29.80;1.00
56322;DHT22;42227;6.376;-10.782;2023-06-14T13:29:39;29.80;1.00
56322;DHT22;42227;6.376;-10.782;2023-06-14T13:32:08;30.00;1.00
56322;DHT22;42227;6.376;-10.782;2023-06-14T13:34:37;30.10;1.00
56322;DHT22;42227;6.376;-10.782;2023-06-14T13:37:05;30.10;1.00
56322;DHT22;42227;6.376;-10.782;2023-06-14T13:39:34;29.80;1.00
56322;DHT22;42227;6.376;-10.782;2023-06-14T13:42:02;29.70;1.00
56322;DHT22;42227;6.376;-10.782;2023-06-14T13:44:31;29.90;1.00
56322;DHT22;42227;6.376;-10.782;2023-06-14T13:47:00;30.00;1.00
56322;DHT22;42227;6.376;-10.782;2023-06-14T13:49:29;30.10;1.00
56322;DHT22;42227;6.376;-10.782;2023-06-14T13:52:01;30.30;1.00
56322;DHT22;42227;6.376;-10.782;2023-06-14T13:54:30;30.40;1.00
56322;DHT22;42227;6.376;-10.782;2023-06-14T13:56:59;30.10;1.00
56322;DHT22;42227;6.376;-10.782;2023-06-14T13:59:27;30.00;1.00
56322;DHT22;42227;6.376;-10.782;2023-06-14T14:01:56;29.70;1.00
56322;DHT22;42227;6.376;-10.782;2023-06-14T14:04:25;29.70;1.00
56322;DHT22;42227;6.376;-10.782;2023-06-14T14:06:54;29.60;1.00
56322;DHT22;42227;6.376;-10.782;2023-06-14T14:09:22;29.80;1.00
56322;DHT22;42227;6.376;-10.782;2023-06-14T14:11:51;30.10;1.00
56322;DHT22;42227;6.376;-10.782;2023-06-14T14:14:19;30.10;1.00
56322;DHT22;42227;6.376;-10.782;2023-06-14T14:16:48;30.10;1.00
56322;DHT22;42227;6.376;-10.782;2023-06-14T14:19:16;29.80;1.00
56322;DHT22;42227;6.376;-10.782;2023-06-14T14:21:45;30.10;1.00
56322;DHT22;42227;6.376;-10.782;2023-06-14T14:24:14;30.10;1.00
56322;DHT22;42227;6.376;-10.782;2023-06-14T14:26:42;30.00;1.00
56322;DHT22;42227;6.376;-10.782;2023-06-14T14:29:11;30.30;1.00
56322;DHT22;42227;6.376;-10.782;2023-06-14T14:31:39;30.70;1.00
56322;DHT22;42227;6.376;-10.782;2023-06-14T14:34:08;30.80;1.00
56322;DHT22;42227;6.376;-10.782;2023-06-14T14:36:37;30.90;1.00
56322;DHT22;42227;6.376;-10.782;2023-06-14T14:39:06;31.20;1.00
56322;DHT22;42227;6.376;-10.782;2023-06-14T14:41:34;31.20;1.00
56322;DHT22;42227;6.376;-10.782;2023-06-14T14:44:04;30.10;1.00
56322;DHT22;42227;6.376;-10.782;2023-06-14T14:46:33;30.10;1.00
56322;DHT22;42227;6.376;-10.782;2023-06-14T14:49:02;30.00;1.00
56322;DHT22;42227;6.376;-10.782;2023-06-14T14:51:33;29.80;1.00
56322;DHT22;42227;6.376;-10.782;2023-06-14T14:54:01;29.90;1.00
56322;DHT22;42227;6.376;-10.782;2023-06-14T14:56:30;29.80;1.00
56322;DHT22;42227;6.376;-10.782;2023-06-14T14:59:00;30.00;1.00
56322;DHT22;42227;6.376;-10.782;2023-06-14T15:01:28;29.70;1.00
56322;DHT22;42227;6.376;-10.782;2023-06-14T15:03:57;29.60;1.00
56322;DHT22;42227;6.376;-10.782;2023-06-14T15:06:27;29.80;1.00
56322;DHT22;42227;6.376;-10.782;2023-06-14T15:08:56;29.70;1.00
56322;DHT22;42227;6.376;-10.782;2023-06-14T15:11:24;29.50;1.00
56322;DHT22;42227;6.376;-10.782;2023-06-14T15:13:53;29.50;1.00
56322;DHT22;42227;6.376;-10.782;2023-06-14T15:16:22;29.50;1.00
56322;DHT22;42227;6.376;-10.782;2023-06-14T15:18:50;29.60;1.00
56322;DHT22;42227;6.376;-10.782;2023-06-14T15:21:19;29.70;1.00
56322;DHT22;42227;6.376;-10.782;2023-06-14T15:23:47;30.00;1.00
56322;DHT22;42227;6.376;-10.782;2023-06-14T15:26:16;30.10;1.00
56322;DHT22;42227;6.376;-10.782;2023-06-14T15:28:44;29.70;1.00
56322;DHT22;42227;6.376;-10.782;2023-06-14T15:31:13;29.80;1.00
56322;DHT22;42227;6.376;-10.782;2023-06-14T15:33:41;30.00;1.00
56322;DHT22;42227;6.376;-10.782;2023-06-14T15:36:10;30.30;1.00
56322;DHT22;42227;6.376;-10.782;2023-06-14T15:38:39;30.50;1.00
56322;DHT22;42227;6.376;-10.782;2023-06-14T15:41:07;29.80;1.00
56322;DHT22;42227;6.376;-10.782;2023-06-14T15:43:36;29.50;1.00
56322;DHT22;42227;6.376;-10.782;2023-06-14T15:46:04;29.80;1.00
56322;DHT22;42227;6.376;-10.782;2023-06-14T15:48:33;29.70;1.00
56322;DHT22;42227;6.376;-10.782;2023-06-14T15:51:01;29.50;1.00
56322;DHT22;42227;6.376;-10.782;2023-06-14T15:53:30;29.60;1.00
56322;DHT22;42227;6.376;-10.782;2023-06-14T15:55:58;29.70;1.00